createdAt,value
2017-04-20T00:00:14.367Z,1030.6
2017-04-20T00:01:14.342Z,1030.61
2017-04-20T00:02:14.317Z,1030.6
2017-04-20T00:03:14.288Z,1030.57
2017-04-20T00:04:14.266Z,1030.53
2017-04-20T00:05:17.268Z,1030.51
2017-04-20T00:06:14.210Z,1030.54
2017-04-20T00:07:14.183Z,1030.57
2017-04-20T00:08:14.158Z,1030.58
2017-04-20T00:09:14.136Z,1030.53
2017-04-20T00:10:14.103Z,1030.54
2017-04-20T00:11:14.078Z,1030.55
2017-04-20T00:12:14.052Z,1030.55
2017-04-20T00:13:14.028Z,1030.54
2017-04-20T00:14:14.001Z,1030.54
2017-04-20T00:15:26.706Z,1030.52
2017-04-20T00:16:13.946Z,1030.58
2017-04-20T00:17:13.920Z,1030.55
2017-04-20T00:18:13.893Z,1030.57
2017-04-20T00:19:13.869Z,1030.54
2017-04-20T00:20:13.841Z,1030.56
2017-04-20T00:21:13.812Z,1030.59
2017-04-20T00:22:13.789Z,1030.58
2017-04-20T00:23:13.765Z,1030.57
2017-04-20T00:24:13.736Z,1030.57
2017-04-20T00:25:13.709Z,1030.53
2017-04-20T00:26:13.683Z,1030.51
2017-04-20T00:27:13.658Z,1030.48
2017-04-20T00:28:13.629Z,1030.52
2017-04-20T00:29:13.603Z,1030.48
2017-04-20T00:30:13.575Z,1030.44
2017-04-20T00:31:13.551Z,1030.45
2017-04-20T00:32:13.526Z,1030.45
2017-04-20T00:33:13.497Z,1030.46
2017-04-20T00:34:13.470Z,1030.43
2017-04-20T00:35:13.444Z,1030.37
2017-04-20T00:36:13.419Z,1030.42
2017-04-20T00:37:13.390Z,1030.39
2017-04-20T00:38:13.365Z,1030.44
2017-04-20T00:39:13.350Z,1030.41
2017-04-20T00:40:13.312Z,1030.41
2017-04-20T00:41:13.285Z,1030.41
2017-04-20T00:42:13.264Z,1030.41
2017-04-20T00:43:13.234Z,1030.38
2017-04-20T00:44:13.205Z,1030.31
2017-04-20T00:45:13.178Z,1030.33
2017-04-20T00:46:13.155Z,1030.34
2017-04-20T00:47:13.127Z,1030.32
2017-04-20T00:48:13.099Z,1030.35
2017-04-20T00:49:13.074Z,1030.34
2017-04-20T00:50:13.046Z,1030.34
2017-04-20T00:51:13.019Z,1030.35
2017-04-20T00:52:13.000Z,1030.35
2017-04-20T00:53:12.967Z,1030.36
2017-04-20T00:54:12.940Z,1030.33
2017-04-20T00:55:12.916Z,1030.39
2017-04-20T00:56:12.885Z,1030.33
2017-04-20T00:57:12.862Z,1030.32
2017-04-20T00:58:12.835Z,1030.33
2017-04-20T00:59:12.809Z,1030.42
2017-04-20T01:00:12.785Z,1030.34
2017-04-20T01:01:12.757Z,1030.36
2017-04-20T01:02:12.730Z,1030.36
2017-04-20T01:03:12.754Z,1030.3
2017-04-20T01:04:12.677Z,1030.29
2017-04-20T01:05:12.650Z,1030.29
2017-04-20T01:06:12.623Z,1030.33
2017-04-20T01:07:12.598Z,1030.31
2017-04-20T01:08:12.571Z,1030.33
2017-04-20T01:09:12.555Z,1030.32
2017-04-20T01:10:12.522Z,1030.3
2017-04-20T01:11:12.492Z,1030.27
2017-04-20T01:12:12.465Z,1030.29
2017-04-20T01:13:12.440Z,1030.28
2017-04-20T01:14:12.412Z,1030.29
2017-04-20T01:15:12.388Z,1030.24
2017-04-20T01:16:12.359Z,1030.25
2017-04-20T01:17:12.331Z,1030.28
2017-04-20T01:18:12.310Z,1030.21
2017-04-20T01:19:12.279Z,1030.26
2017-04-20T01:20:12.255Z,1030.27
2017-04-20T01:21:12.228Z,1030.3
2017-04-20T01:22:12.449Z,1030.28
2017-04-20T01:23:12.183Z,1030.3
2017-04-20T01:24:12.148Z,1030.31
2017-04-20T01:25:12.122Z,1030.34
2017-04-20T01:26:12.094Z,1030.32
2017-04-20T01:27:12.071Z,1030.34
2017-04-20T01:28:12.040Z,1030.33
2017-04-20T01:29:12.011Z,1030.32
2017-04-20T01:30:11.987Z,1030.31
2017-04-20T01:31:11.960Z,1030.32
2017-04-20T01:32:11.933Z,1030.33
2017-04-20T01:34:11.883Z,1030.33
2017-04-20T01:35:11.857Z,1030.35
2017-04-20T01:36:11.828Z,1030.36
2017-04-20T01:37:11.801Z,1030.33
2017-04-20T01:38:11.775Z,1030.35
2017-04-20T01:39:11.747Z,1030.31
2017-04-20T01:40:11.721Z,1030.36
2017-04-20T01:41:11.694Z,1030.37
2017-04-20T01:42:11.668Z,1030.37
2017-04-20T01:43:11.640Z,1030.36
2017-04-20T01:44:11.612Z,1030.33
2017-04-20T01:45:11.595Z,1030.4
2017-04-20T01:46:11.561Z,1030.37
2017-04-20T01:47:11.533Z,1030.36
2017-04-20T01:48:12.908Z,1030.35
2017-04-20T01:49:11.483Z,1030.32
2017-04-20T01:50:11.453Z,1030.33
2017-04-20T01:51:11.428Z,1030.28
2017-04-20T01:52:11.401Z,1030.27
2017-04-20T01:53:11.374Z,1030.3
2017-04-20T01:54:11.346Z,1030.28
2017-04-20T01:55:11.321Z,1030.26
2017-04-20T01:56:11.295Z,1030.32
2017-04-20T01:57:11.267Z,1030.3
2017-04-20T01:58:11.239Z,1030.26
2017-04-20T01:59:11.215Z,1030.29
2017-04-20T02:00:11.191Z,1030.26
2017-04-20T02:01:11.158Z,1030.33
2017-04-20T02:02:11.133Z,1030.25
2017-04-20T02:03:11.105Z,1030.27
2017-04-20T02:04:11.078Z,1030.3
2017-04-20T02:05:11.051Z,1030.28
2017-04-20T02:06:11.024Z,1030.24
2017-04-20T02:07:10.998Z,1030.24
2017-04-20T02:08:10.980Z,1030.24
2017-04-20T02:09:10.944Z,1030.23
2017-04-20T02:10:10.917Z,1030.27
2017-04-20T02:11:10.890Z,1030.23
2017-04-20T02:12:10.860Z,1030.23
2017-04-20T02:13:10.835Z,1030.16
2017-04-20T02:14:10.809Z,1030.17
2017-04-20T02:15:10.781Z,1030.18
2017-04-20T02:16:10.753Z,1030.2
2017-04-20T02:17:10.728Z,1030.2
2017-04-20T02:18:10.701Z,1030.17
2017-04-20T02:19:10.726Z,1030.18
2017-04-20T02:20:10.644Z,1030.18
2017-04-20T02:21:10.621Z,1030.29
2017-04-20T02:22:10.592Z,1030.29
2017-04-20T02:23:10.565Z,1030.33
2017-04-20T02:24:10.538Z,1030.3
2017-04-20T02:25:10.561Z,1030.26
2017-04-20T02:26:10.483Z,1030.2
2017-04-20T02:27:10.457Z,1030.23
2017-04-20T02:28:10.429Z,1030.25
2017-04-20T02:29:10.404Z,1030.25
2017-04-20T02:30:10.374Z,1030.23
2017-04-20T02:31:10.349Z,1030.25
2017-04-20T02:32:10.324Z,1030.24
2017-04-20T02:33:10.294Z,1030.21
2017-04-20T02:34:10.268Z,1030.23
2017-04-20T02:35:10.244Z,1030.25
2017-04-20T02:36:10.213Z,1030.27
2017-04-20T02:37:10.184Z,1030.27
2017-04-20T02:38:10.212Z,1030.28
2017-04-20T02:39:10.132Z,1030.33
2017-04-20T02:40:10.103Z,1030.3
2017-04-20T02:41:10.097Z,1030.32
2017-04-20T02:42:10.050Z,1030.32
2017-04-20T02:43:10.023Z,1030.32
2017-04-20T02:44:09.996Z,1030.38
2017-04-20T02:45:09.975Z,1030.39
2017-04-20T02:46:09.942Z,1030.39
2017-04-20T02:47:09.913Z,1030.36
2017-04-20T02:48:09.887Z,1030.36
2017-04-20T02:49:09.860Z,1030.38
2017-04-20T02:50:09.831Z,1030.43
2017-04-20T02:51:09.805Z,1030.43
2017-04-20T02:52:09.777Z,1030.43
2017-04-20T02:53:09.750Z,1030.44
2017-04-20T02:54:09.724Z,1030.48
2017-04-20T02:55:09.696Z,1030.39
2017-04-20T02:56:09.672Z,1030.43
2017-04-20T02:57:09.641Z,1030.38
2017-04-20T02:58:09.615Z,1030.43
2017-04-20T02:59:09.587Z,1030.42
2017-04-20T03:00:09.558Z,1030.41
2017-04-20T03:01:09.532Z,1030.41
2017-04-20T03:02:09.506Z,1030.45
2017-04-20T03:03:09.527Z,1030.46
2017-04-20T03:04:09.450Z,1030.44
2017-04-20T03:05:09.425Z,1030.47
2017-04-20T03:06:09.396Z,1030.49
2017-04-20T03:07:09.367Z,1030.49
2017-04-20T03:08:09.347Z,1030.51
2017-04-20T03:09:10.916Z,1030.47
2017-04-20T03:10:09.286Z,1030.46
2017-04-20T03:11:09.260Z,1030.46
2017-04-20T03:12:09.230Z,1030.49
2017-04-20T03:13:09.205Z,1030.49
2017-04-20T03:14:09.177Z,1030.48
2017-04-20T03:15:09.150Z,1030.44
2017-04-20T03:16:09.124Z,1030.41
2017-04-20T03:17:09.097Z,1030.38
2017-04-20T03:18:09.068Z,1030.39
2017-04-20T03:19:09.392Z,1030.41
2017-04-20T03:20:09.018Z,1030.39
2017-04-20T03:21:08.985Z,1030.36
2017-04-20T03:22:08.959Z,1030.39
2017-04-20T03:23:08.931Z,1030.38
2017-04-20T03:24:08.903Z,1030.41
2017-04-20T03:25:08.882Z,1030.37
2017-04-20T03:26:08.846Z,1030.36
2017-04-20T03:27:08.821Z,1030.38
2017-04-20T03:28:08.795Z,1030.38
2017-04-20T03:29:08.768Z,1030.39
2017-04-20T03:30:08.736Z,1030.39
2017-04-20T03:31:08.714Z,1030.37
2017-04-20T03:32:08.685Z,1030.42
2017-04-20T03:33:08.656Z,1030.4
2017-04-20T03:34:09.953Z,1030.36
2017-04-20T03:35:08.600Z,1030.41
2017-04-20T03:36:08.574Z,1030.41
2017-04-20T03:37:08.547Z,1030.39
2017-04-20T03:38:08.524Z,1030.39
2017-04-20T03:39:08.490Z,1030.39
2017-04-20T03:40:08.465Z,1030.38
2017-04-20T03:41:08.436Z,1030.35
2017-04-20T03:42:08.409Z,1030.34
2017-04-20T03:43:08.380Z,1030.33
2017-04-20T03:44:08.354Z,1030.32
2017-04-20T03:45:08.325Z,1030.34
2017-04-20T03:46:08.298Z,1030.3
2017-04-20T03:47:08.272Z,1030.32
2017-04-20T03:48:08.244Z,1030.32
2017-04-20T03:49:08.215Z,1030.33
2017-04-20T03:50:08.192Z,1030.38
2017-04-20T03:51:08.160Z,1030.31
2017-04-20T03:52:08.137Z,1030.28
2017-04-20T03:53:08.106Z,1030.26
2017-04-20T03:54:08.079Z,1030.22
2017-04-20T03:55:08.049Z,1030.25
2017-04-20T03:56:08.025Z,1030.23
2017-04-20T03:57:07.997Z,1030.28
2017-04-20T03:58:07.970Z,1030.27
2017-04-20T03:59:07.939Z,1030.26
2017-04-20T04:00:07.919Z,1030.27
2017-04-20T04:01:07.882Z,1030.29
2017-04-20T04:02:07.856Z,1030.27
2017-04-20T04:03:07.830Z,1030.29
2017-04-20T04:04:07.802Z,1030.28
2017-04-20T04:05:07.773Z,1030.24
2017-04-20T04:06:07.745Z,1030.22
2017-04-20T04:07:07.718Z,1030.28
2017-04-20T04:08:07.693Z,1030.29
2017-04-20T04:09:07.680Z,1030.27
2017-04-20T04:10:07.635Z,1030.35
2017-04-20T04:11:07.612Z,1030.35
2017-04-20T04:12:07.578Z,1030.34
2017-04-20T04:13:07.552Z,1030.33
2017-04-20T04:14:07.527Z,1030.37
2017-04-20T04:15:07.497Z,1030.34
2017-04-20T04:16:07.468Z,1030.4
2017-04-20T04:17:07.441Z,1030.39
2017-04-20T04:18:07.413Z,1030.48
2017-04-20T04:19:07.386Z,1030.41
2017-04-20T04:20:07.407Z,1030.43
2017-04-20T04:21:07.330Z,1030.37
2017-04-20T04:22:07.302Z,1030.42
2017-04-20T04:23:07.274Z,1030.4
2017-04-20T04:24:07.298Z,1030.42
2017-04-20T04:25:07.219Z,1030.45
2017-04-20T04:26:07.190Z,1030.5
2017-04-20T04:27:07.164Z,1030.45
2017-04-20T04:28:07.587Z,1030.46
2017-04-20T04:29:07.109Z,1030.46
2017-04-20T04:30:07.081Z,1030.49
2017-04-20T04:31:07.054Z,1030.45
2017-04-20T04:32:07.029Z,1030.5
2017-04-20T04:33:07.001Z,1030.52
2017-04-20T04:34:06.970Z,1030.43
2017-04-20T04:35:06.943Z,1030.43
2017-04-20T04:36:06.916Z,1030.48
2017-04-20T04:37:06.895Z,1030.42
2017-04-20T04:38:06.860Z,1030.45
2017-04-20T04:39:06.832Z,1030.44
2017-04-20T04:40:06.807Z,1030.48
2017-04-20T04:41:06.778Z,1030.48
2017-04-20T04:42:06.751Z,1030.45
2017-04-20T04:43:06.723Z,1030.47
2017-04-20T04:44:06.696Z,1030.46
2017-04-20T04:45:06.668Z,1030.45
2017-04-20T04:46:06.641Z,1030.41
2017-04-20T04:47:06.613Z,1030.4
2017-04-20T04:48:06.590Z,1030.47
2017-04-20T04:49:06.558Z,1030.43
2017-04-20T04:50:06.580Z,1030.46
2017-04-20T04:51:06.503Z,1030.48
2017-04-20T04:52:06.477Z,1030.46
2017-04-20T04:53:06.451Z,1030.5
2017-04-20T04:54:06.424Z,1030.5
2017-04-20T04:55:06.397Z,1030.49
2017-04-20T04:56:06.375Z,1030.47
2017-04-20T04:57:06.346Z,1030.42
2017-04-20T04:58:06.319Z,1030.47
2017-04-20T04:59:06.289Z,1030.46
2017-04-20T05:00:06.270Z,1030.46
2017-04-20T05:01:06.238Z,1030.42
2017-04-20T05:02:06.210Z,1030.41
2017-04-20T05:03:06.182Z,1030.49
2017-04-20T05:04:06.154Z,1030.43
2017-04-20T05:05:06.131Z,1030.39
2017-04-20T05:06:06.103Z,1030.43
2017-04-20T05:07:06.076Z,1030.46
2017-04-20T05:08:06.051Z,1030.42
2017-04-20T05:09:06.026Z,1030.45
2017-04-20T05:10:06.001Z,1030.43
2017-04-20T05:11:05.973Z,1030.46
2017-04-20T05:12:05.947Z,1030.48
2017-04-20T05:13:05.923Z,1030.46
2017-04-20T05:14:05.897Z,1030.53
2017-04-20T05:15:05.870Z,1030.53
2017-04-20T05:16:05.846Z,1030.5
2017-04-20T05:17:05.824Z,1030.46
2017-04-20T05:18:05.795Z,1030.54
2017-04-20T05:19:05.768Z,1030.49
2017-04-20T05:20:05.745Z,1030.5
2017-04-20T05:21:05.721Z,1030.51
2017-04-20T05:22:05.694Z,1030.52
2017-04-20T05:23:05.669Z,1030.52
2017-04-20T05:24:05.655Z,1030.54
2017-04-20T05:25:05.623Z,1030.57
2017-04-20T05:26:05.601Z,1030.59
2017-04-20T05:27:05.573Z,1030.62
2017-04-20T05:28:05.551Z,1030.6
2017-04-20T05:29:05.529Z,1030.6
2017-04-20T05:30:05.501Z,1030.6
2017-04-20T05:31:05.477Z,1030.61
2017-04-20T05:32:05.453Z,1030.64
2017-04-20T05:33:05.428Z,1030.67
2017-04-20T05:34:05.406Z,1030.69
2017-04-20T05:35:05.386Z,1030.69
2017-04-20T05:36:05.361Z,1030.68
2017-04-20T05:37:05.334Z,1030.68
2017-04-20T05:38:05.312Z,1030.69
2017-04-20T05:39:05.292Z,1030.7
2017-04-20T05:40:05.266Z,1030.71
2017-04-20T05:41:05.241Z,1030.71
2017-04-20T05:42:05.220Z,1030.76
2017-04-20T05:43:05.197Z,1030.72
2017-04-20T05:44:05.171Z,1030.74
2017-04-20T05:45:05.151Z,1030.73
2017-04-20T05:46:05.125Z,1030.74
2017-04-20T05:47:05.104Z,1030.71
2017-04-20T05:48:05.079Z,1030.69
2017-04-20T05:49:05.059Z,1030.72
2017-04-20T05:50:05.035Z,1030.71
2017-04-20T05:51:05.012Z,1030.7
2017-04-20T05:52:04.991Z,1030.68
2017-04-20T05:53:04.969Z,1030.67
2017-04-20T05:54:04.945Z,1030.7
2017-04-20T05:55:04.924Z,1030.67
2017-04-20T05:56:04.906Z,1030.66
2017-04-20T05:57:04.881Z,1030.69
2017-04-20T05:58:04.855Z,1030.71
2017-04-20T05:59:04.834Z,1030.7
2017-04-20T06:00:04.820Z,1030.71
2017-04-20T06:01:04.841Z,1030.73
2017-04-20T06:02:04.769Z,1030.73
2017-04-20T06:03:04.746Z,1030.74
2017-04-20T06:04:04.724Z,1030.71
2017-04-20T06:05:04.703Z,1030.76
2017-04-20T06:06:04.679Z,1030.76
2017-04-20T06:07:04.658Z,1030.77
2017-04-20T06:08:04.637Z,1030.81
2017-04-20T06:09:04.616Z,1030.77
2017-04-20T06:10:04.600Z,1030.77
2017-04-20T06:11:04.573Z,1030.8
2017-04-20T06:12:04.550Z,1030.81
2017-04-20T06:13:04.529Z,1030.77
2017-04-20T06:14:04.508Z,1030.77
2017-04-20T06:15:04.487Z,1030.79
2017-04-20T06:16:04.467Z,1030.8
2017-04-20T06:17:04.445Z,1030.81
2017-04-20T06:18:04.425Z,1030.81
2017-04-20T06:19:04.402Z,1030.79
2017-04-20T06:20:04.383Z,1030.8
2017-04-20T06:21:04.412Z,1030.81
2017-04-20T06:22:04.341Z,1030.8
2017-04-20T06:23:04.323Z,1030.78
2017-04-20T06:24:04.295Z,1030.72
2017-04-20T06:25:04.279Z,1030.8
2017-04-20T06:26:04.260Z,1030.8
2017-04-20T06:27:04.235Z,1030.79
2017-04-20T06:28:04.216Z,1030.77
2017-04-20T06:29:04.200Z,1030.79
2017-04-20T06:30:04.174Z,1030.8
2017-04-20T06:31:04.156Z,1030.83
2017-04-20T06:32:04.133Z,1030.78
2017-04-20T06:33:04.114Z,1030.81
2017-04-20T06:34:04.098Z,1030.83
2017-04-20T06:35:04.074Z,1030.8
2017-04-20T06:36:04.060Z,1030.78
2017-04-20T06:37:04.033Z,1030.79
2017-04-20T06:38:04.014Z,1030.81
2017-04-20T06:39:03.994Z,1030.83
2017-04-20T06:40:03.986Z,1030.78
2017-04-20T06:41:03.981Z,1030.8
2017-04-20T06:42:03.936Z,1030.8
2017-04-20T06:43:03.916Z,1030.79
2017-04-20T06:44:03.897Z,1030.81
2017-04-20T06:45:03.874Z,1030.8
2017-04-20T06:46:03.858Z,1030.76
2017-04-20T06:47:03.837Z,1030.81
2017-04-20T06:48:03.819Z,1030.75
2017-04-20T06:49:03.799Z,1030.71
2017-04-20T06:50:03.782Z,1030.78
2017-04-20T06:51:03.770Z,1030.76
2017-04-20T06:52:03.749Z,1030.75
2017-04-20T06:53:03.727Z,1030.76
2017-04-20T06:54:03.708Z,1030.77
2017-04-20T06:55:03.689Z,1030.77
2017-04-20T06:56:03.671Z,1030.75
2017-04-20T06:57:03.657Z,1030.75
2017-04-20T06:58:03.634Z,1030.78
2017-04-20T06:59:03.618Z,1030.75
2017-04-20T07:00:03.599Z,1030.81
2017-04-20T07:01:03.582Z,1030.8
2017-04-20T07:02:03.568Z,1030.77
2017-04-20T07:03:03.545Z,1030.82
2017-04-20T07:04:03.527Z,1030.8
2017-04-20T07:05:03.510Z,1030.85
2017-04-20T07:06:03.490Z,1030.82
2017-04-20T07:07:03.471Z,1030.83
2017-04-20T07:08:03.457Z,1030.84
2017-04-20T07:09:03.440Z,1030.86
2017-04-20T07:10:03.423Z,1030.89
2017-04-20T07:11:03.405Z,1030.91
2017-04-20T07:12:03.388Z,1030.88
2017-04-20T07:13:03.379Z,1030.86
2017-04-20T07:14:03.358Z,1030.93
2017-04-20T07:15:03.340Z,1030.9
2017-04-20T07:16:03.318Z,1030.9
2017-04-20T07:17:03.304Z,1030.95
2017-04-20T07:18:03.289Z,1030.91
2017-04-20T07:19:03.270Z,1030.9
2017-04-20T07:20:03.251Z,1030.92
2017-04-20T07:21:03.239Z,1030.95
2017-04-20T07:22:03.221Z,1030.95
2017-04-20T07:23:03.202Z,1030.9
2017-04-20T07:24:03.186Z,1030.88
2017-04-20T07:25:03.169Z,1030.87
2017-04-20T07:26:03.152Z,1030.89
2017-04-20T07:27:03.136Z,1030.91
2017-04-20T07:28:03.124Z,1030.89
2017-04-20T07:29:03.105Z,1030.91
2017-04-20T07:30:03.092Z,1030.91
2017-04-20T07:31:03.075Z,1030.87
2017-04-20T07:32:03.058Z,1030.88
2017-04-20T07:33:03.043Z,1030.91
2017-04-20T07:34:03.025Z,1030.92
2017-04-20T07:35:03.009Z,1030.91
2017-04-20T07:36:02.995Z,1030.9
2017-04-20T07:37:02.979Z,1030.92
2017-04-20T07:38:02.964Z,1030.9
2017-04-20T07:39:02.946Z,1030.91
2017-04-20T07:40:02.931Z,1030.88
2017-04-20T07:41:02.916Z,1030.92
2017-04-20T07:42:02.902Z,1030.93
2017-04-20T07:43:02.888Z,1030.89
2017-04-20T07:44:02.869Z,1030.94
2017-04-20T07:45:02.854Z,1030.88
2017-04-20T07:46:02.837Z,1030.88
2017-04-20T07:47:02.828Z,1030.88
2017-04-20T07:48:02.808Z,1030.9
2017-04-20T07:49:02.795Z,1030.88
2017-04-20T07:50:02.776Z,1030.9
2017-04-20T07:51:02.765Z,1030.88
2017-04-20T07:52:02.748Z,1030.88
2017-04-20T07:53:03.735Z,1030.86
2017-04-20T07:54:02.719Z,1030.88
2017-04-20T07:55:02.704Z,1030.89
2017-04-20T07:56:02.741Z,1030.95
2017-04-20T07:57:02.676Z,1030.84
2017-04-20T07:58:02.661Z,1030.89
2017-04-20T07:59:02.646Z,1030.91
2017-04-20T08:00:02.632Z,1030.91
2017-04-20T08:01:02.619Z,1030.91
2017-04-20T08:02:02.605Z,1030.88
2017-04-20T08:03:02.590Z,1030.84
2017-04-20T08:04:02.579Z,1030.87
2017-04-20T08:05:02.561Z,1030.88
2017-04-20T08:06:02.553Z,1030.9
2017-04-20T08:07:02.531Z,1030.87
2017-04-20T08:08:02.518Z,1030.88
2017-04-20T08:09:02.505Z,1030.87
2017-04-20T08:10:02.490Z,1030.9
2017-04-20T08:11:02.474Z,1030.88
2017-04-20T08:12:02.461Z,1030.83
2017-04-20T08:13:02.443Z,1030.85
2017-04-20T08:14:02.435Z,1030.85
2017-04-20T08:15:02.416Z,1030.85
2017-04-20T08:16:02.403Z,1030.91
2017-04-20T08:17:02.387Z,1030.87
2017-04-20T08:18:02.372Z,1030.86
2017-04-20T08:19:02.408Z,1030.81
2017-04-20T08:20:02.346Z,1030.85
2017-04-20T08:21:02.328Z,1030.87
2017-04-20T08:22:02.313Z,1030.83
2017-04-20T08:23:02.294Z,1030.87
2017-04-20T08:24:02.283Z,1030.91
2017-04-20T08:25:02.320Z,1030.87
2017-04-20T08:26:02.253Z,1030.9
2017-04-20T08:27:02.239Z,1030.86
2017-04-20T08:28:02.224Z,1030.85
2017-04-20T08:29:02.207Z,1030.84
2017-04-20T08:30:02.196Z,1030.87
2017-04-20T08:31:02.229Z,1030.82
2017-04-20T08:32:02.165Z,1030.82
2017-04-20T08:33:02.196Z,1030.89
2017-04-20T08:34:02.135Z,1030.85
2017-04-20T08:35:02.124Z,1030.87
2017-04-20T08:36:02.107Z,1030.9
2017-04-20T08:37:02.088Z,1030.88
2017-04-20T08:38:02.075Z,1030.81
2017-04-20T08:39:02.065Z,1030.88
2017-04-20T08:40:02.045Z,1030.9
2017-04-20T08:41:02.034Z,1030.86
2017-04-20T08:42:02.016Z,1030.89
2017-04-20T08:43:02.000Z,1030.89
2017-04-20T08:44:01.987Z,1030.86
2017-04-20T08:45:01.974Z,1030.86
2017-04-20T08:46:01.958Z,1030.87
2017-04-20T08:47:01.944Z,1030.86
2017-04-20T08:48:01.931Z,1030.88
2017-04-20T08:49:01.919Z,1030.87
2017-04-20T08:50:01.905Z,1030.87
2017-04-20T08:51:01.888Z,1030.88
2017-04-20T08:52:01.873Z,1030.83
2017-04-20T08:53:01.863Z,1030.88
2017-04-20T08:54:01.846Z,1030.94
2017-04-20T08:55:01.833Z,1030.88
2017-04-20T08:56:01.817Z,1030.89
2017-04-20T08:57:01.800Z,1030.89
2017-04-20T08:58:01.787Z,1030.88
2017-04-20T08:59:01.774Z,1030.84
2017-04-20T09:00:01.758Z,1030.86
2017-04-20T09:01:01.750Z,1030.8
2017-04-20T09:02:01.731Z,1030.81
2017-04-20T09:03:01.719Z,1030.81
2017-04-20T09:04:01.700Z,1030.76
2017-04-20T09:05:01.690Z,1030.74
2017-04-20T09:06:01.684Z,1030.72
2017-04-20T09:07:01.712Z,1030.77
2017-04-20T09:08:01.642Z,1030.79
2017-04-20T09:09:01.634Z,1030.76
2017-04-20T09:10:01.617Z,1030.78
2017-04-20T09:11:01.596Z,1030.78
2017-04-20T09:12:01.584Z,1030.74
2017-04-20T09:13:01.594Z,1030.76
2017-04-20T09:14:01.550Z,1030.75
2017-04-20T09:15:01.539Z,1030.77
2017-04-20T09:16:01.528Z,1030.76
2017-04-20T09:17:01.510Z,1030.74
2017-04-20T09:18:01.501Z,1030.8
2017-04-20T09:19:01.487Z,1030.79
2017-04-20T09:20:01.471Z,1030.83
2017-04-20T09:21:02.055Z,1030.82
2017-04-20T09:22:01.445Z,1030.81
2017-04-20T09:23:01.428Z,1030.88
2017-04-20T09:24:01.420Z,1030.82
2017-04-20T09:25:01.403Z,1030.83
2017-04-20T09:26:01.386Z,1030.78
2017-04-20T09:27:01.370Z,1030.76
2017-04-20T09:28:01.360Z,1030.74
2017-04-20T09:29:01.339Z,1030.76
2017-04-20T09:30:01.324Z,1030.74
2017-04-20T09:31:01.311Z,1030.69
2017-04-20T09:32:01.300Z,1030.67
2017-04-20T09:33:01.287Z,1030.69
2017-04-20T09:34:01.270Z,1030.65
2017-04-20T09:35:01.254Z,1030.68
2017-04-20T09:36:01.242Z,1030.69
2017-04-20T09:37:01.236Z,1030.7
2017-04-20T09:38:01.211Z,1030.7
2017-04-20T09:39:01.198Z,1030.65
2017-04-20T09:40:01.181Z,1030.65
2017-04-20T09:41:01.168Z,1030.62
2017-04-20T09:42:01.153Z,1030.65
2017-04-20T09:43:01.139Z,1030.65
2017-04-20T09:44:01.126Z,1030.66
2017-04-20T09:45:01.112Z,1030.66
2017-04-20T09:46:01.097Z,1030.66
2017-04-20T09:47:01.080Z,1030.64
2017-04-20T09:48:01.077Z,1030.62
2017-04-20T09:49:01.059Z,1030.61
2017-04-20T09:50:01.050Z,1030.64
2017-04-20T09:51:01.033Z,1030.63
2017-04-20T09:52:01.016Z,1030.61
2017-04-20T09:53:01.002Z,1030.63
2017-04-20T09:54:00.986Z,1030.61
2017-04-20T09:55:00.974Z,1030.66
2017-04-20T09:56:00.958Z,1030.6
2017-04-20T09:57:00.949Z,1030.65
2017-04-20T09:58:00.931Z,1030.64
2017-04-20T09:59:00.915Z,1030.65
2017-04-20T10:00:00.899Z,1030.68
2017-04-20T10:01:00.885Z,1030.63
2017-04-20T10:02:00.866Z,1030.66
2017-04-20T10:03:00.854Z,1030.64
2017-04-20T10:04:00.838Z,1030.69
2017-04-20T10:05:00.821Z,1030.66
2017-04-20T10:06:00.820Z,1030.67
2017-04-20T10:07:00.789Z,1030.69
2017-04-20T10:08:00.770Z,1030.69
2017-04-20T10:09:00.759Z,1030.7
2017-04-20T10:10:00.750Z,1030.73
2017-04-20T10:11:00.720Z,1030.69
2017-04-20T10:12:00.703Z,1030.66
2017-04-20T10:13:00.687Z,1030.72
2017-04-20T10:14:00.664Z,1030.63
2017-04-20T10:15:00.646Z,1030.64
2017-04-20T10:16:00.634Z,1030.66
2017-04-20T10:17:00.620Z,1030.64
2017-04-20T10:18:00.599Z,1030.6
2017-04-20T10:19:00.583Z,1030.58
2017-04-20T10:20:00.567Z,1030.61
2017-04-20T10:21:00.548Z,1030.6
2017-04-20T10:22:00.537Z,1030.63
2017-04-20T10:23:00.520Z,1030.67
2017-04-20T10:24:00.509Z,1030.61
2017-04-20T10:25:00.501Z,1030.6
2017-04-20T10:26:00.470Z,1030.6
2017-04-20T10:27:00.457Z,1030.6
2017-04-20T10:28:00.456Z,1030.6
2017-04-20T10:29:00.421Z,1030.56
2017-04-20T10:30:00.414Z,1030.5
2017-04-20T10:31:00.392Z,1030.51
2017-04-20T10:32:00.371Z,1030.55
2017-04-20T10:33:00.366Z,1030.58
2017-04-20T10:34:00.343Z,1030.52
2017-04-20T10:35:00.326Z,1030.56
2017-04-20T10:36:00.303Z,1030.53
2017-04-20T10:37:00.293Z,1030.52
2017-04-20T10:38:00.272Z,1030.52
2017-04-20T10:39:00.257Z,1030.49
2017-04-20T10:40:00.244Z,1030.5
2017-04-20T10:41:00.224Z,1030.52
2017-04-20T10:42:00.204Z,1030.49
2017-04-20T10:43:00.189Z,1030.51
2017-04-20T10:44:00.220Z,1030.53
2017-04-20T10:45:00.151Z,1030.49
2017-04-20T10:46:00.132Z,1030.47
2017-04-20T10:47:00.111Z,1030.43
2017-04-20T10:48:00.095Z,1030.4
2017-04-20T10:49:00.079Z,1030.5
2017-04-20T10:50:00.063Z,1030.43
2017-04-20T10:51:00.034Z,1030.39
2017-04-20T10:52:00.016Z,1030.44
2017-04-20T10:52:59.997Z,1030.51
2017-04-20T10:53:59.978Z,1030.45
2017-04-20T10:54:59.956Z,1030.44
2017-04-20T10:55:59.987Z,1030.44
2017-04-20T10:56:59.919Z,1030.37
2017-04-20T10:57:59.898Z,1030.33
2017-04-20T10:58:59.877Z,1030.33
2017-04-20T10:59:59.856Z,1030.28
2017-04-20T11:00:59.837Z,1030.29
2017-04-20T11:01:59.816Z,1030.34
2017-04-20T11:02:59.796Z,1030.27
2017-04-20T11:03:59.775Z,1030.28
2017-04-20T11:04:59.754Z,1030.21
2017-04-20T11:05:59.735Z,1030.2
2017-04-20T11:06:59.715Z,1030.25
2017-04-20T11:07:59.693Z,1030.26
2017-04-20T11:08:59.720Z,1030.23
2017-04-20T11:09:59.654Z,1030.23
2017-04-20T11:10:59.630Z,1030.22
2017-04-20T11:11:59.610Z,1030.19
2017-04-20T11:12:59.590Z,1030.18
2017-04-20T11:13:59.570Z,1030.18
2017-04-20T11:14:59.545Z,1030.19
2017-04-20T11:15:59.527Z,1030.17
2017-04-20T11:16:59.555Z,1030.13
2017-04-20T11:17:59.488Z,1030.17
2017-04-20T11:18:59.470Z,1030.11
2017-04-20T11:19:59.446Z,1030.05
2017-04-20T11:20:59.420Z,1030.1
2017-04-20T11:21:59.398Z,1030.07
2017-04-20T11:22:59.377Z,1030.04
2017-04-20T11:23:59.356Z,1030.06
2017-04-20T11:24:59.336Z,1030.03
2017-04-20T11:25:59.316Z,1030.04
2017-04-20T11:26:59.297Z,1030.02
2017-04-20T11:27:59.274Z,1030
2017-04-20T11:28:59.250Z,1029.99
2017-04-20T11:29:59.228Z,1030.04
2017-04-20T11:30:59.230Z,1030.01
2017-04-20T11:31:59.190Z,1030.01
2017-04-20T11:32:59.167Z,1030.02
2017-04-20T11:33:59.147Z,1029.97
2017-04-20T11:34:59.120Z,1030.04
2017-04-20T11:35:59.107Z,1030.03
2017-04-20T11:36:59.084Z,1029.97
2017-04-20T11:37:59.063Z,1029.95
2017-04-20T11:38:59.035Z,1029.95
2017-04-20T11:39:59.015Z,1029.94
2017-04-20T11:40:59.005Z,1029.96
2017-04-20T11:41:58.971Z,1029.94
2017-04-20T11:42:58.945Z,1029.88
2017-04-20T11:43:58.926Z,1029.92
2017-04-20T11:44:58.909Z,1029.93
2017-04-20T11:45:58.887Z,1029.92
2017-04-20T11:46:58.864Z,1029.94
2017-04-20T11:47:58.848Z,1029.89
2017-04-20T11:48:58.823Z,1029.88
2017-04-20T11:49:58.796Z,1029.88
2017-04-20T11:50:58.773Z,1029.9
2017-04-20T11:51:59.008Z,1029.82
2017-04-20T11:52:58.734Z,1029.8
2017-04-20T11:53:58.716Z,1029.77
2017-04-20T11:54:58.693Z,1029.83
2017-04-20T11:55:59.971Z,1029.87
2017-04-20T11:56:58.649Z,1029.79
2017-04-20T11:57:58.629Z,1029.77
2017-04-20T11:58:58.609Z,1029.77
2017-04-20T11:59:58.585Z,1029.76
2017-04-20T12:00:58.564Z,1029.79
2017-04-20T12:01:58.542Z,1029.71
2017-04-20T12:02:58.531Z,1029.7
2017-04-20T12:03:58.497Z,1029.69
2017-04-20T12:04:58.474Z,1029.7
2017-04-20T12:05:58.455Z,1029.7
2017-04-20T12:06:58.437Z,1029.69
2017-04-20T12:07:58.421Z,1029.71
2017-04-20T12:08:58.392Z,1029.72